This is the latest recevied weather packets stored in our database for station/object HARMAJA. If no packets are shown the sender has not sent any weather packets the latest 10 day(s).
| Time | Temp. | Humidity | Pressure | Rain* | Wind** | Luminosity | Snow |
|---|---|---|---|---|---|---|---|
| 1777828027 | 6.67° C | 88% | 1007.6 hPa | - | - | - | - |
| 1777825627 | 6.67° C | 90% | 1007.8 hPa | - | - | - | - |
| 1777822027 | 7.22° C | 86% | 1007.7 hPa | - | - | - | - |
| 1777819627 | 6.67° C | 88% | 1007.9 hPa | - | - | - | - |
| 1777817227 | 6.67° C | 88% | 1007.9 hPa | - | - | - | - |
| 1777816027 | 6.67° C | 87% | 1008 hPa | - | - | - | - |
| 1777814827 | 6.67° C | 87% | 1007.9 hPa | - | - | - | - |
| 1777811226 | 8.33° C | 78% | 1008.1 hPa | - | - | - | - |
| 1777810027 | 7.78° C | 81% | 1008.1 hPa | - | - | - | - |
| 1777808827 | 7.78° C | 79% | 1008.1 hPa | - | - | - | - |
| 1777807626 | 7.78° C | 80% | 1008.1 hPa | - | - | - | - |
| 1777806426 | 7.78° C | 80% | 1008.2 hPa | - | - | - | - |
| 1777805231 | 7.78° C | 80% | 1008 hPa | - | - | - | - |
| 1777804026 | 8.89° C | 77% | 1008.1 hPa | - | - | - | - |
| 1777802826 | 8.33° C | 81% | 1008 hPa | - | - | - | - |
| 1777801626 | 7.78° C | 83% | 1008 hPa | - | - | - | - |
| 1777800426 | 7.22° C | 85% | 1008.2 hPa | - | - | - | - |
| 1777799226 | 7.22° C | 86% | 1008 hPa | - | - | - | - |
| 1777798026 | 6.67° C | 89% | 1008 hPa | - | - | - | - |
| 1777796826 | 6.67° C | 88% | 1007.9 hPa | - | - | - | - |
| 1777795626 | 6.67° C | 88% | 1007.5 hPa | - | - | - | - |
| 1777794426 | 6.67° C | 88% | 1007.2 hPa | - | - | - | - |
| 1777793225 | 6.11° C | 92% | 1007.4 hPa | - | - | - | - |
| 1777792025 | 5.56° C | 94% | 1007.3 hPa | - | - | - | - |
| 1777790825 | 5.56° C | 93% | 1007 hPa | - | - | - | - |
* Rain since midnight (hover to see other rain measurements)
** Current wind speed in m/s (hover to see current wind gust speed)